首页
METAR-TAF:

METAR-TAF

机场 :

St. Petersburg-Clearwater International Airport

聖彼德斯堡-克利爾沃特, 佛罗里达州, 美国

纬度: 27-54-44N, 经度: 082-41-08W, 海拔: 3米

当前天气观测

该预报发布于15分钟前的09:53 UTC
风速4节,风向
温度 27°C
湿度 84%
气压 1017 hPa
能見度: 16.1公里
天空无云

METAR: KPIE 010953Z 19004KT 10SM CLR 27/24 A3003 RMK AO2 SLP169 T02720239 $

时间: 06:08 (10:08 UTC)

预报

该预报发布于4小时和48分钟前的05:20 UTC
预报有效从01日的 06点(UTC)到 02日的 06点(UTC)
风速5节,风向西转西南
能見度: 10公里
少量云层高于2500英尺
从 01日的 1300点(UTC)
风速9节,风向西南
能見度: 10公里
散云层高于3000英尺
多云层高于8000英尺
从 01日的 1900点(UTC)
风速12节,风向西转西南
能見度: 10公里
散云层高于3500英尺
散云层高于25000英尺
从 02日的 0100点(UTC)
风速5节,风向西南
能見度: 10公里
少量云层高于2500英尺
散云层高于25000英尺

TAF: KPIE 010520Z 0106/0206 24005KT P6SM FEW025 FM011300 23009KT P6SM SCT030 BKN080 FM011900 25012KT P6SM SCT035 SCT250 FM020100 23005KT P6SM FEW025 SCT250

超过4000个机场的气象观测和天气预报(METAR&TAF报告)。

可查询的气象台以黄色和红色小点在地图上表示。

将鼠标移到小点上方,可查看气象台名称。

然后点击查看天气观测和预报。

如需切换地图:点击带黑十字的绿色按钮放大地图;点击带横线的绿色按钮缩小地图;或者点击绿色箭头查看邻近地区的地图。


METAR-TAF: